createdAt,value
2023-05-16T00:00:00.310Z,12
2023-05-16T00:01:14.487Z,12
2023-05-16T00:03:42.843Z,12
2023-05-16T00:04:56.910Z,12
2023-05-16T00:06:10.948Z,12
2023-05-16T00:07:25.159Z,13
2023-05-16T00:09:53.359Z,12
2023-05-16T00:11:07.620Z,12
2023-05-16T00:12:21.602Z,12
2023-05-16T00:14:50.013Z,13
2023-05-16T00:16:04.040Z,12
2023-05-16T00:17:18.192Z,12
2023-05-16T00:19:46.464Z,13
2023-05-16T00:21:00.519Z,12
2023-05-16T00:22:14.768Z,12
2023-05-16T00:24:42.981Z,13
2023-05-16T00:25:57.098Z,13
2023-05-16T00:27:11.320Z,13
2023-05-16T00:28:25.424Z,13
2023-05-16T00:30:53.626Z,13
2023-05-16T00:32:07.937Z,14
2023-05-16T00:33:22.021Z,13
2023-05-16T00:34:36.178Z,14
2023-05-16T00:35:50.169Z,13
2023-05-16T00:37:04.302Z,14
2023-05-16T00:38:18.534Z,14
2023-05-16T00:40:54.867Z,15
2023-05-16T00:42:09.139Z,14
2023-05-16T00:43:23.155Z,14
2023-05-16T00:45:51.463Z,14
2023-05-16T00:47:05.573Z,14
2023-05-16T00:48:19.706Z,14
2023-05-16T00:50:47.999Z,13
2023-05-16T00:52:02.208Z,13
2023-05-16T00:53:16.312Z,13
2023-05-16T00:54:30.373Z,13
2023-05-16T00:55:44.569Z,13
2023-05-16T00:56:58.669Z,14
2023-05-16T00:58:12.757Z,15
2023-05-16T00:59:26.868Z,14
2023-05-16T01:01:55.288Z,13
2023-05-16T01:03:09.362Z,13
2023-05-16T01:04:23.428Z,13
2023-05-16T01:06:51.773Z,12
2023-05-16T01:08:05.816Z,12
2023-05-16T01:09:19.973Z,12
2023-05-16T01:11:48.256Z,12
2023-05-16T01:13:02.296Z,13
2023-05-16T01:14:16.503Z,13
2023-05-16T01:16:44.788Z,14
2023-05-16T01:17:58.932Z,14
2023-05-16T01:19:13.028Z,13
2023-05-16T01:20:27.178Z,13
2023-05-16T01:22:55.461Z,14
2023-05-16T01:24:09.576Z,14
2023-05-16T01:25:23.708Z,14
2023-05-16T01:27:51.960Z,14
2023-05-16T01:29:06.093Z,14
2023-05-16T01:30:20.263Z,13
2023-05-16T01:32:48.623Z,15
2023-05-16T01:34:02.598Z,13
2023-05-16T01:35:16.776Z,13
2023-05-16T01:37:45.126Z,14
2023-05-16T01:38:59.146Z,15
2023-05-16T01:40:13.275Z,16
2023-05-16T01:41:27.401Z,16
2023-05-16T01:43:55.685Z,16
2023-05-16T01:45:09.805Z,17
2023-05-16T01:46:23.951Z,18
2023-05-16T01:48:52.182Z,18
2023-05-16T01:50:06.312Z,18
2023-05-16T01:51:20.605Z,18
2023-05-16T01:53:48.797Z,17
2023-05-16T01:55:02.898Z,18
2023-05-16T01:56:17.073Z,17
2023-05-16T01:58:45.382Z,15
2023-05-16T01:59:59.358Z,17
2023-05-16T02:01:13.800Z,16
2023-05-16T02:02:27.745Z,15
2023-05-16T02:04:55.926Z,13
2023-05-16T02:06:10.163Z,12
2023-05-16T02:07:24.430Z,12
2023-05-16T02:09:52.503Z,12
2023-05-16T02:11:06.605Z,11
2023-05-16T02:12:20.774Z,10
2023-05-16T02:14:49.041Z,10
2023-05-16T02:16:03.201Z,9
2023-05-16T02:17:17.288Z,8
2023-05-16T02:19:45.583Z,9
2023-05-16T02:20:59.693Z,8
2023-05-16T02:22:13.995Z,9
2023-05-16T02:23:27.938Z,9
2023-05-16T02:25:56.185Z,8
2023-05-16T02:27:10.369Z,8
2023-05-16T02:28:24.541Z,8
2023-05-16T02:30:53.033Z,7
2023-05-16T02:32:06.940Z,8
2023-05-16T02:35:49.308Z,8
2023-05-16T02:37:03.396Z,9
2023-05-16T02:38:17.685Z,9
2023-05-16T02:40:45.820Z,9
2023-05-16T02:42:00.135Z,10
2023-05-16T02:43:14.103Z,9
2023-05-16T02:44:28.153Z,9
2023-05-16T02:46:56.442Z,10
2023-05-16T02:48:10.665Z,9
2023-05-16T02:49:24.697Z,9
2023-05-16T02:51:52.985Z,10
2023-05-16T02:53:07.100Z,8
2023-05-16T02:54:21.223Z,8
2023-05-16T02:56:49.640Z,8
2023-05-16T02:58:03.644Z,8
2023-05-16T02:59:17.783Z,7
2023-05-16T03:01:46.207Z,7
2023-05-16T03:03:00.311Z,7
2023-05-16T03:04:14.523Z,7
2023-05-16T03:05:28.751Z,7
2023-05-16T03:07:56.715Z,7
2023-05-16T03:09:10.802Z,7
2023-05-16T03:10:25.017Z,7
2023-05-16T03:12:53.237Z,7
2023-05-16T03:14:07.377Z,7
2023-05-16T03:15:21.474Z,7
2023-05-16T03:17:49.862Z,7
2023-05-16T03:19:04.016Z,7
2023-05-16T03:20:18.109Z,7
2023-05-16T03:22:46.289Z,6
2023-05-16T03:24:00.464Z,7
2023-05-16T03:25:14.747Z,7
2023-05-16T03:27:42.834Z,7
2023-05-16T03:28:56.952Z,7
2023-05-16T03:30:11.079Z,7
2023-05-16T03:31:25.295Z,6
2023-05-16T03:33:53.536Z,6
2023-05-16T03:35:07.717Z,6
2023-05-16T03:36:21.762Z,6
2023-05-16T03:38:50.097Z,6
2023-05-16T03:40:04.359Z,5
2023-05-16T03:41:18.352Z,5
2023-05-16T03:43:46.576Z,5
2023-05-16T03:45:00.673Z,5
2023-05-16T03:46:15.089Z,5
2023-05-16T03:47:29.068Z,5
2023-05-16T03:49:57.205Z,6
2023-05-16T03:51:11.321Z,5
2023-05-16T03:52:25.528Z,5
2023-05-16T03:54:53.876Z,5
2023-05-16T03:56:08.003Z,5
2023-05-16T03:57:22.040Z,5
2023-05-16T03:59:50.272Z,5
2023-05-16T04:01:04.605Z,5
2023-05-16T04:02:19.113Z,5
2023-05-16T04:04:46.880Z,5
2023-05-16T04:06:01.153Z,4
2023-05-16T04:07:15.159Z,4
2023-05-16T04:09:43.409Z,4
2023-05-16T04:10:57.686Z,4
2023-05-16T04:12:11.625Z,4
2023-05-16T04:13:25.894Z,4
2023-05-16T04:15:54.177Z,4
2023-05-16T04:17:08.353Z,4
2023-05-16T04:18:22.280Z,4
2023-05-16T04:20:50.534Z,4
2023-05-16T04:22:04.902Z,4
2023-05-16T04:23:18.954Z,4
2023-05-16T04:25:47.221Z,4
2023-05-16T04:27:02.402Z,4
2023-05-16T04:28:15.367Z,4
2023-05-16T04:30:43.628Z,4
2023-05-16T04:31:57.962Z,4
2023-05-16T04:33:12.092Z,4
2023-05-16T04:34:26.073Z,4
2023-05-16T04:36:54.324Z,4
2023-05-16T04:38:08.587Z,4
2023-05-16T04:39:22.596Z,4
2023-05-16T04:41:50.783Z,4
2023-05-16T04:43:04.947Z,4
2023-05-16T04:44:19.177Z,4
2023-05-16T04:46:47.557Z,4
2023-05-16T04:48:01.710Z,4
2023-05-16T04:49:15.731Z,4
2023-05-16T04:51:43.893Z,4
2023-05-16T04:52:58.039Z,4
2023-05-16T04:54:12.273Z,4
2023-05-16T04:55:26.832Z,4
2023-05-16T04:57:54.583Z,4
2023-05-16T04:59:08.663Z,5
2023-05-16T05:00:22.826Z,4
2023-05-16T05:02:51.140Z,4
2023-05-16T05:04:05.387Z,5
2023-05-16T05:05:19.418Z,5
2023-05-16T05:07:47.678Z,5
2023-05-16T05:09:01.853Z,5
2023-05-16T05:10:15.963Z,6
2023-05-16T05:12:44.194Z,6
2023-05-16T05:13:58.352Z,5
2023-05-16T05:15:12.418Z,6
2023-05-16T05:16:26.633Z,6
2023-05-16T05:18:56.061Z,6
2023-05-16T05:20:09.193Z,6
2023-05-16T05:21:23.139Z,6
2023-05-16T05:23:51.381Z,6
2023-05-16T05:25:05.484Z,6
2023-05-16T05:26:19.715Z,7
2023-05-16T05:28:57.272Z,7
2023-05-16T05:30:02.019Z,6
2023-05-16T05:31:16.349Z,7
2023-05-16T05:32:30.311Z,6
2023-05-16T05:33:44.486Z,8
2023-05-16T05:34:58.593Z,8
2023-05-16T05:36:12.720Z,8
2023-05-16T05:37:26.848Z,8
2023-05-16T05:39:55.169Z,9
2023-05-16T05:41:09.231Z,8
2023-05-16T05:42:23.473Z,9
2023-05-16T05:44:51.629Z,11
2023-05-16T05:46:06.024Z,10
2023-05-16T05:47:19.910Z,11
2023-05-16T05:49:48.257Z,11
2023-05-16T05:51:02.280Z,11
2023-05-16T05:52:16.470Z,12
2023-05-16T05:54:44.693Z,13
2023-05-16T05:55:58.959Z,12
2023-05-16T05:57:12.978Z,11
2023-05-16T05:58:27.114Z,12
2023-05-16T06:00:55.424Z,12
2023-05-16T06:02:09.525Z,12
2023-05-16T06:03:23.708Z,12
2023-05-16T06:05:51.981Z,11
2023-05-16T06:07:06.070Z,9
2023-05-16T06:08:20.236Z,9
2023-05-16T06:10:48.611Z,7
2023-05-16T06:12:02.641Z,7
2023-05-16T06:13:16.713Z,7
2023-05-16T06:15:45.071Z,7
2023-05-16T06:16:59.198Z,6
2023-05-16T06:18:13.403Z,6
2023-05-16T06:19:27.419Z,7
2023-05-16T06:21:55.692Z,6
2023-05-16T06:23:09.747Z,6
2023-05-16T06:24:23.988Z,6
2023-05-16T06:26:52.192Z,6
2023-05-16T06:28:06.452Z,6
2023-05-16T06:29:20.412Z,5
2023-05-16T06:31:48.822Z,5
2023-05-16T06:33:02.933Z,5
2023-05-16T06:34:17.130Z,5
2023-05-16T06:36:45.318Z,5
2023-05-16T06:37:59.495Z,5
2023-05-16T06:39:13.532Z,5
2023-05-16T06:40:27.783Z,4
2023-05-16T06:42:55.888Z,4
2023-05-16T06:44:10.183Z,4
2023-05-16T06:45:24.176Z,4
2023-05-16T06:47:53.638Z,4
2023-05-16T06:49:06.624Z,5
2023-05-16T06:50:20.705Z,4
2023-05-16T06:52:49.011Z,4
2023-05-16T06:54:04.187Z,4
2023-05-16T06:55:17.323Z,4
2023-05-16T06:57:45.534Z,4
2023-05-16T06:58:59.722Z,5
2023-05-16T07:00:13.824Z,4
2023-05-16T07:01:28.130Z,4
2023-05-16T07:03:56.263Z,4
2023-05-16T07:05:10.334Z,3
2023-05-16T07:06:24.517Z,3
2023-05-16T07:08:52.725Z,3
2023-05-16T07:10:06.844Z,4
2023-05-16T07:11:21.035Z,4
2023-05-16T07:13:49.196Z,4
2023-05-16T07:15:03.351Z,4
2023-05-16T07:16:17.637Z,4
2023-05-16T07:18:45.826Z,3
2023-05-16T07:20:00.783Z,4
2023-05-16T07:21:14.183Z,4
2023-05-16T07:23:42.436Z,4
2023-05-16T07:24:56.460Z,4
2023-05-16T07:26:10.583Z,4
2023-05-16T07:27:24.864Z,4
2023-05-16T07:29:53.187Z,4
2023-05-16T07:31:07.137Z,4
2023-05-16T07:32:21.345Z,4
2023-05-16T07:34:49.599Z,3
2023-05-16T07:36:15.556Z,3
2023-05-16T07:37:17.812Z,3
2023-05-16T07:39:46.062Z,3
2023-05-16T07:41:00.194Z,3
2023-05-16T07:42:14.392Z,3
2023-05-16T07:43:29.050Z,3
2023-05-16T07:45:56.724Z,3
2023-05-16T07:47:10.789Z,3
2023-05-16T07:48:24.922Z,3
2023-05-16T07:50:55.062Z,3
2023-05-16T07:52:07.468Z,2
2023-05-16T07:53:21.396Z,3
2023-05-16T07:55:49.822Z,3
2023-05-16T07:57:03.894Z,3
2023-05-16T07:58:18.048Z,3
2023-05-16T08:00:46.455Z,3
2023-05-16T08:02:00.504Z,3
2023-05-16T08:03:14.717Z,2
2023-05-16T08:05:42.909Z,3
2023-05-16T08:06:56.948Z,2
2023-05-16T08:08:11.040Z,3
2023-05-16T08:09:25.236Z,2
2023-05-16T08:11:53.610Z,2
2023-05-16T08:13:07.726Z,2
2023-05-16T08:14:21.860Z,3
2023-05-16T08:16:50.009Z,2
2023-05-16T08:18:04.175Z,2
2023-05-16T08:19:18.370Z,2
2023-05-16T08:21:46.587Z,3
2023-05-16T08:23:00.622Z,3
2023-05-16T08:24:16.438Z,2
2023-05-16T08:25:29.189Z,2
2023-05-16T08:27:57.209Z,3
2023-05-16T08:29:11.274Z,2
2023-05-16T08:30:25.548Z,2
2023-05-16T08:32:53.971Z,2
2023-05-16T08:34:07.881Z,2
2023-05-16T08:35:22.244Z,2
2023-05-16T08:37:50.282Z,3
2023-05-16T08:39:04.434Z,3
2023-05-16T08:40:18.672Z,2
2023-05-16T08:42:46.758Z,2
2023-05-16T08:44:01.265Z,2
2023-05-16T08:45:15.159Z,2
2023-05-16T08:47:43.515Z,3
2023-05-16T08:48:57.481Z,2
2023-05-16T08:50:11.612Z,2
2023-05-16T08:51:25.841Z,3
2023-05-16T08:53:54.070Z,2
2023-05-16T08:55:11.035Z,2
2023-05-16T08:56:22.269Z,2
2023-05-16T08:58:50.601Z,2
2023-05-16T09:00:04.787Z,2
2023-05-16T09:01:18.980Z,2
2023-05-16T09:03:47.206Z,2
2023-05-16T09:05:01.561Z,2
2023-05-16T09:06:15.355Z,2
2023-05-16T09:08:43.751Z,2
2023-05-16T09:09:57.752Z,2
2023-05-16T09:11:11.865Z,2
2023-05-16T09:12:25.951Z,3
2023-05-16T09:14:54.409Z,2
2023-05-16T09:16:08.393Z,2
2023-05-16T09:17:36.058Z,2
2023-05-16T09:19:50.809Z,2
2023-05-16T09:21:04.947Z,2
2023-05-16T09:22:19.051Z,2
2023-05-16T09:24:47.434Z,2
2023-05-16T09:26:01.842Z,2
2023-05-16T09:27:15.606Z,2
2023-05-16T09:29:45.100Z,2
2023-05-16T09:30:58.042Z,3
2023-05-16T09:32:12.133Z,2
2023-05-16T09:33:26.266Z,2
2023-05-16T09:35:54.618Z,2
2023-05-16T09:37:08.783Z,2
2023-05-16T09:38:22.918Z,2
2023-05-16T09:40:51.182Z,2
2023-05-16T09:42:05.190Z,2
2023-05-16T09:43:19.343Z,2
2023-05-16T09:45:47.602Z,2
2023-05-16T09:47:01.869Z,2
2023-05-16T09:48:15.917Z,2
2023-05-16T09:50:44.219Z,2
2023-05-16T09:51:58.325Z,2
2023-05-16T09:53:12.441Z,2
2023-05-16T09:54:26.609Z,2
2023-05-16T09:56:54.948Z,1
2023-05-16T09:58:09.023Z,2
2023-05-16T09:59:23.099Z,2
2023-05-16T10:01:51.356Z,2
2023-05-16T10:03:06.383Z,2
2023-05-16T10:04:19.709Z,2
2023-05-16T10:06:47.946Z,2
2023-05-16T10:08:02.052Z,2
2023-05-16T10:09:16.297Z,2
2023-05-16T10:10:30.270Z,2
2023-05-16T10:11:44.393Z,2
2023-05-16T10:12:58.563Z,1
2023-05-16T10:14:12.665Z,2
2023-05-16T10:15:27.117Z,2
2023-05-16T10:17:55.184Z,1
2023-05-16T10:19:09.287Z,1
2023-05-16T10:20:23.388Z,1
2023-05-16T10:22:52.017Z,2
2023-05-16T10:24:05.841Z,2
2023-05-16T10:25:19.880Z,2
2023-05-16T10:27:48.245Z,2
2023-05-16T10:29:02.323Z,2
2023-05-16T10:30:16.516Z,2
2023-05-16T10:32:44.836Z,2
2023-05-16T10:33:58.786Z,2
2023-05-16T10:35:12.926Z,2
2023-05-16T10:36:27.156Z,2
2023-05-16T10:38:55.360Z,1
2023-05-16T10:40:09.489Z,1
2023-05-16T10:41:23.618Z,1
2023-05-16T10:43:52.127Z,1
2023-05-16T10:45:06.322Z,1
2023-05-16T10:46:20.131Z,1
2023-05-16T10:48:49.644Z,1
2023-05-16T10:50:02.514Z,2
2023-05-16T10:51:16.818Z,2
2023-05-16T10:53:45.012Z,1
2023-05-16T10:54:59.151Z,2
2023-05-16T10:56:13.155Z,2
2023-05-16T10:57:27.318Z,1
2023-05-16T10:59:57.227Z,2
2023-05-16T11:01:09.736Z,2
2023-05-16T11:02:23.960Z,2
2023-05-16T11:04:52.131Z,1
2023-05-16T11:06:06.312Z,1
2023-05-16T11:07:20.374Z,2
2023-05-16T11:09:48.698Z,1
2023-05-16T11:11:02.725Z,1
2023-05-16T11:12:16.966Z,1
2023-05-16T11:14:45.286Z,2
2023-05-16T11:15:59.335Z,2
2023-05-16T11:17:13.863Z,2
2023-05-16T11:18:27.635Z,2
2023-05-16T11:20:55.846Z,1
2023-05-16T11:22:10.173Z,2
2023-05-16T11:23:24.205Z,1
2023-05-16T11:25:52.405Z,1
2023-05-16T11:27:06.597Z,1
2023-05-16T11:28:20.722Z,1
2023-05-16T11:30:48.859Z,2
2023-05-16T11:32:03.103Z,2
2023-05-16T11:33:17.312Z,1
2023-05-16T11:35:45.691Z,1
2023-05-16T11:36:59.623Z,2
2023-05-16T11:38:13.777Z,1
2023-05-16T11:39:27.928Z,2
2023-05-16T11:41:56.146Z,2
2023-05-16T11:43:10.242Z,1
2023-05-16T11:44:24.429Z,1
2023-05-16T11:46:52.739Z,1
2023-05-16T11:48:06.942Z,1
2023-05-16T11:49:20.952Z,1
2023-05-16T11:51:49.297Z,1
2023-05-16T11:53:03.279Z,1
2023-05-16T11:54:17.554Z,1
2023-05-16T11:56:45.819Z,1
2023-05-16T11:57:59.966Z,1
2023-05-16T11:59:14.195Z,1
2023-05-16T12:01:42.206Z,1
2023-05-16T12:02:56.421Z,1
2023-05-16T12:04:10.628Z,1
2023-05-16T12:05:24.707Z,1
2023-05-16T12:07:52.890Z,1
2023-05-16T12:09:07.095Z,1
2023-05-16T12:10:21.172Z,1
2023-05-16T12:12:49.772Z,1
2023-05-16T12:14:03.584Z,1
2023-05-16T12:15:17.679Z,1
2023-05-16T12:17:46.078Z,1
2023-05-16T12:19:00.192Z,1
2023-05-16T12:20:14.298Z,1
2023-05-16T12:21:28.474Z,1
2023-05-16T12:23:56.685Z,1
2023-05-16T12:25:10.721Z,1
2023-05-16T12:26:25.245Z,1
2023-05-16T12:28:53.290Z,1
2023-05-16T12:30:07.262Z,1
2023-05-16T12:31:31.061Z,1
2023-05-16T12:33:49.987Z,1
2023-05-16T12:35:03.824Z,1
2023-05-16T12:36:18.028Z,2
2023-05-16T12:38:47.014Z,1
2023-05-16T12:40:00.378Z,2
2023-05-16T12:41:14.518Z,2
2023-05-16T12:42:28.640Z,2
2023-05-16T12:44:56.862Z,2
2023-05-16T12:46:11.433Z,1
2023-05-16T12:47:25.229Z,2
2023-05-16T12:49:53.467Z,1
2023-05-16T12:51:07.593Z,1
2023-05-16T12:52:21.805Z,1
2023-05-16T12:54:50.085Z,1
2023-05-16T12:56:04.111Z,2
2023-05-16T12:57:18.370Z,2
2023-05-16T12:59:46.486Z,2
2023-05-16T13:01:00.806Z,2
2023-05-16T13:02:14.899Z,1
2023-05-16T13:04:43.002Z,2
2023-05-16T13:05:57.226Z,1
2023-05-16T13:07:11.291Z,2
2023-05-16T13:08:25.489Z,1
2023-05-16T13:10:53.795Z,2
2023-05-16T13:12:07.885Z,2
2023-05-16T13:13:32.498Z,1
2023-05-16T13:14:36.157Z,2
2023-05-16T13:15:50.212Z,2
2023-05-16T13:17:04.447Z,1
2023-05-16T13:18:18.653Z,1
2023-05-16T13:20:46.868Z,2
2023-05-16T13:22:00.861Z,2
2023-05-16T13:23:15.048Z,2
2023-05-16T13:25:43.287Z,1
2023-05-16T13:26:57.463Z,2
2023-05-16T13:28:11.557Z,2
2023-05-16T13:29:25.723Z,2
2023-05-16T13:31:53.984Z,2
2023-05-16T13:33:08.215Z,2
2023-05-16T13:34:22.185Z,2
2023-05-16T13:36:54.294Z,2
2023-05-16T13:38:04.647Z,2
2023-05-16T13:39:18.815Z,2
2023-05-16T13:41:48.779Z,2
2023-05-16T13:43:01.136Z,2
2023-05-16T13:44:15.394Z,2
2023-05-16T13:46:43.559Z,1
2023-05-16T13:47:57.771Z,2
2023-05-16T13:49:11.861Z,2
2023-05-16T13:50:33.299Z,2
2023-05-16T13:52:54.269Z,2
2023-05-16T13:54:08.343Z,1
2023-05-16T13:55:22.507Z,2
2023-05-16T13:57:50.763Z,2
2023-05-16T13:59:07.270Z,2
2023-05-16T14:00:43.658Z,2
2023-05-16T14:02:47.416Z,2
2023-05-16T14:04:01.400Z,2
2023-05-16T14:05:15.629Z,2
2023-05-16T14:07:46.134Z,1
2023-05-16T14:08:58.104Z,1
2023-05-16T14:10:12.133Z,1
2023-05-16T14:11:28.457Z,1
2023-05-16T14:13:54.451Z,1
2023-05-16T14:15:08.810Z,1
2023-05-16T14:16:23.872Z,1
2023-05-16T14:18:51.031Z,1
2023-05-16T14:20:05.244Z,1
2023-05-16T14:21:19.448Z,1
2023-05-16T14:23:47.564Z,1
2023-05-16T14:25:01.798Z,1
2023-05-16T14:26:15.869Z,1
2023-05-16T14:28:44.083Z,1
2023-05-16T14:29:58.524Z,1
2023-05-16T14:31:12.550Z,1
2023-05-16T14:32:27.083Z,1
2023-05-16T14:34:54.780Z,1
2023-05-16T14:36:08.976Z,1
2023-05-16T14:37:23.210Z,1
2023-05-16T14:39:51.306Z,1
2023-05-16T14:41:05.538Z,1
2023-05-16T14:42:19.639Z,1
2023-05-16T14:44:47.952Z,1
2023-05-16T14:46:02.327Z,1
2023-05-16T14:47:16.128Z,1
2023-05-16T14:49:44.392Z,1
2023-05-16T14:50:58.479Z,1
2023-05-16T14:52:12.577Z,1
2023-05-16T14:53:26.854Z,1
2023-05-16T14:55:55.079Z,1
2023-05-16T14:57:09.326Z,1
2023-05-16T14:58:23.269Z,1
2023-05-16T15:00:51.733Z,1
2023-05-16T15:02:05.831Z,1
2023-05-16T15:03:19.942Z,1
2023-05-16T15:05:48.181Z,1
2023-05-16T15:07:02.414Z,1
2023-05-16T15:08:16.409Z,1
2023-05-16T15:10:44.724Z,1
2023-05-16T15:11:58.872Z,1
2023-05-16T15:13:13.089Z,1
2023-05-16T15:14:27.112Z,1
2023-05-16T15:16:55.434Z,1
2023-05-16T15:18:09.479Z,1
2023-05-16T15:19:23.908Z,1
2023-05-16T15:21:51.857Z,1
2023-05-16T15:23:06.042Z,1
2023-05-16T15:24:20.193Z,1
2023-05-16T15:26:48.397Z,1
2023-05-16T15:28:03.606Z,1
2023-05-16T15:29:16.648Z,1
2023-05-16T15:31:45.115Z,1
2023-05-16T15:32:59.141Z,1
2023-05-16T15:34:13.178Z,1
2023-05-16T15:35:27.741Z,1
2023-05-16T15:37:55.739Z,1
2023-05-16T15:39:09.823Z,1
2023-05-16T15:42:52.119Z,1
2023-05-16T15:44:06.356Z,1
2023-05-16T15:45:20.359Z,1
2023-05-16T15:47:48.691Z,1
2023-05-16T15:49:02.765Z,1
2023-05-16T15:50:17.032Z,1
2023-05-16T15:52:45.132Z,1
2023-05-16T15:53:59.332Z,1
2023-05-16T15:55:13.483Z,1
2023-05-16T15:56:27.815Z,1
2023-05-16T15:58:55.887Z,1
2023-05-16T16:00:09.988Z,1
2023-05-16T16:01:24.170Z,2
2023-05-16T16:03:52.516Z,2
2023-05-16T16:05:06.540Z,2
2023-05-16T16:06:20.583Z,2
2023-05-16T16:08:48.945Z,2
2023-05-16T16:10:03.011Z,2
2023-05-16T16:11:17.196Z,1
2023-05-16T16:13:45.483Z,1
2023-05-16T16:14:59.767Z,2
2023-05-16T16:16:13.978Z,2
2023-05-16T16:17:27.794Z,2
2023-05-16T16:19:56.314Z,2
2023-05-16T16:21:10.212Z,1
2023-05-16T16:22:24.456Z,2
2023-05-16T16:24:52.684Z,1
2023-05-16T16:26:06.973Z,1
2023-05-16T16:27:20.850Z,2
2023-05-16T16:29:49.165Z,1
2023-05-16T16:31:03.351Z,2
2023-05-16T16:32:17.454Z,2
2023-05-16T16:34:45.744Z,2
2023-05-16T16:35:59.931Z,2
2023-05-16T16:37:13.939Z,2
2023-05-16T16:38:28.117Z,2
2023-05-16T16:40:56.466Z,2
2023-05-16T16:42:10.455Z,2
2023-05-16T16:43:24.744Z,2
2023-05-16T16:45:53.011Z,2
2023-05-16T16:47:07.247Z,2
2023-05-16T16:48:21.194Z,1
2023-05-16T16:50:49.456Z,1
2023-05-16T16:52:03.645Z,1
2023-05-16T16:53:17.830Z,2
2023-05-16T16:55:46.006Z,2
2023-05-16T16:57:00.296Z,2
2023-05-16T16:58:14.288Z,1
2023-05-16T16:59:28.403Z,2
2023-05-16T17:01:56.853Z,2
2023-05-16T17:03:10.834Z,2
2023-05-16T17:04:24.986Z,2
2023-05-16T17:06:53.206Z,2
2023-05-16T17:08:07.396Z,1
2023-05-16T17:09:21.513Z,1
2023-05-16T17:11:49.795Z,2
2023-05-16T17:13:03.812Z,2
2023-05-16T17:14:18.073Z,2
2023-05-16T17:16:46.357Z,2
2023-05-16T17:18:00.534Z,2
2023-05-16T17:19:14.529Z,2
2023-05-16T17:21:42.708Z,2
2023-05-16T17:22:56.918Z,2
2023-05-16T17:24:11.035Z,1
2023-05-16T17:25:26.397Z,2
2023-05-16T17:27:53.492Z,2
2023-05-16T17:29:07.657Z,2
2023-05-16T17:30:21.755Z,1
2023-05-16T17:32:49.985Z,1
2023-05-16T17:34:04.078Z,2
2023-05-16T17:35:18.234Z,2
2023-05-16T17:37:46.470Z,1
2023-05-16T17:39:00.626Z,2
2023-05-16T17:40:14.893Z,2
2023-05-16T17:42:43.109Z,2
2023-05-16T17:43:57.159Z,1
2023-05-16T17:45:11.302Z,1
2023-05-16T17:46:25.501Z,2
2023-05-16T17:48:53.689Z,2
2023-05-16T17:50:09.679Z,2
2023-05-16T17:51:21.920Z,1
2023-05-16T17:52:36.098Z,2
2023-05-16T17:53:50.256Z,2
2023-05-16T17:55:04.502Z,2
2023-05-16T17:56:18.545Z,2
2023-05-16T17:58:46.809Z,2
2023-05-16T18:00:00.862Z,3
2023-05-16T18:01:15.041Z,2
2023-05-16T18:03:43.512Z,2
2023-05-16T18:04:57.442Z,2
2023-05-16T18:06:11.635Z,2
2023-05-16T18:07:25.786Z,2
2023-05-16T18:09:54.165Z,2
2023-05-16T18:11:08.140Z,2
2023-05-16T18:12:22.224Z,2
2023-05-16T18:14:50.472Z,3
2023-05-16T18:16:04.568Z,3
2023-05-16T18:17:18.801Z,3
2023-05-16T18:19:47.075Z,2
2023-05-16T18:21:01.126Z,3
2023-05-16T18:22:15.333Z,3
2023-05-16T18:24:43.620Z,2
2023-05-16T18:25:57.665Z,2
2023-05-16T18:27:11.847Z,3
2023-05-16T18:28:25.965Z,2
2023-05-16T18:30:54.166Z,3
2023-05-16T18:32:08.451Z,2
2023-05-16T18:33:22.552Z,2
2023-05-16T18:35:50.660Z,2
2023-05-16T18:37:05.012Z,2
2023-05-16T18:38:31.447Z,3
2023-05-16T18:40:47.426Z,2
2023-05-16T18:42:01.425Z,2
2023-05-16T18:43:15.565Z,3
2023-05-16T18:45:43.811Z,2
2023-05-16T18:46:58.007Z,3
2023-05-16T18:48:12.193Z,2
2023-05-16T18:49:26.267Z,2
2023-05-16T18:51:54.448Z,2
2023-05-16T18:53:08.627Z,3
2023-05-16T18:54:24.344Z,2
2023-05-16T18:56:50.970Z,2
2023-05-16T18:58:05.756Z,3
2023-05-16T18:59:19.305Z,3
2023-05-16T19:01:47.613Z,2
2023-05-16T19:03:01.787Z,3
2023-05-16T19:04:15.894Z,2
2023-05-16T19:06:44.174Z,2
2023-05-16T19:07:58.207Z,2
2023-05-16T19:09:12.470Z,2
2023-05-16T19:10:26.603Z,2
2023-05-16T19:12:54.712Z,3
2023-05-16T19:14:08.915Z,3
2023-05-16T19:15:23.084Z,3
2023-05-16T19:17:51.348Z,2
2023-05-16T19:19:05.759Z,3
2023-05-16T19:20:19.486Z,3
2023-05-16T19:22:47.864Z,3
2023-05-16T19:24:03.140Z,3
2023-05-16T19:25:16.088Z,3
2023-05-16T19:27:44.445Z,3
2023-05-16T19:28:58.525Z,3
2023-05-16T19:30:12.665Z,3
2023-05-16T19:31:26.826Z,3
2023-05-16T19:33:55.049Z,3
2023-05-16T19:35:09.190Z,3
2023-05-16T19:36:23.412Z,3
2023-05-16T19:38:51.516Z,3
2023-05-16T19:40:05.793Z,2
2023-05-16T19:41:19.869Z,3
2023-05-16T19:43:48.219Z,3
2023-05-16T19:45:02.502Z,3
2023-05-16T19:46:16.443Z,2
2023-05-16T19:48:44.739Z,3
2023-05-16T19:49:58.733Z,3
2023-05-16T19:51:12.890Z,3
2023-05-16T19:52:27.039Z,2
2023-05-16T19:54:55.283Z,2
2023-05-16T19:56:09.483Z,3
2023-05-16T19:57:23.607Z,3
2023-05-16T19:59:51.761Z,3
2023-05-16T20:01:06.446Z,3
2023-05-16T20:02:21.313Z,3
2023-05-16T20:04:48.301Z,2
2023-05-16T20:06:02.589Z,3
2023-05-16T20:07:16.605Z,3
2023-05-16T20:09:44.886Z,3
2023-05-16T20:10:58.954Z,3
2023-05-16T20:12:13.283Z,3
2023-05-16T20:13:27.353Z,3
2023-05-16T20:15:55.526Z,3
2023-05-16T20:17:09.731Z,3
2023-05-16T20:18:24.015Z,3
2023-05-16T20:20:53.117Z,3
2023-05-16T20:22:06.495Z,3
2023-05-16T20:23:20.335Z,3
2023-05-16T20:25:48.685Z,3
2023-05-16T20:27:02.708Z,3
2023-05-16T20:28:17.023Z,3
2023-05-16T20:30:45.071Z,3
2023-05-16T20:31:59.461Z,3
2023-05-16T20:33:13.569Z,3
2023-05-16T20:34:27.634Z,3
2023-05-16T20:36:55.779Z,3
2023-05-16T20:38:10.135Z,3
2023-05-16T20:39:24.041Z,3
2023-05-16T20:41:57.478Z,3
2023-05-16T20:43:06.453Z,3
2023-05-16T20:44:20.516Z,3
2023-05-16T20:46:48.919Z,3
2023-05-16T20:48:03.039Z,3
2023-05-16T20:49:17.175Z,3
2023-05-16T20:51:45.485Z,3
2023-05-16T20:52:59.602Z,3
2023-05-16T20:54:13.691Z,3
2023-05-16T20:55:28.137Z,3
2023-05-16T20:57:56.105Z,3
2023-05-16T20:59:10.125Z,3
2023-05-16T21:00:24.449Z,3
2023-05-16T21:02:52.799Z,3
2023-05-16T21:04:07.396Z,3
2023-05-16T21:05:25.551Z,3
2023-05-16T21:07:49.140Z,3
2023-05-16T21:09:03.194Z,3
2023-05-16T21:10:17.452Z,3
2023-05-16T21:12:45.675Z,3
2023-05-16T21:13:59.792Z,3
2023-05-16T21:15:13.941Z,3
2023-05-16T21:16:28.044Z,3
2023-05-16T21:18:56.438Z,3
2023-05-16T21:20:10.428Z,3
2023-05-16T21:24:01.001Z,3
2023-05-16T21:25:15.303Z,3
2023-05-16T21:26:29.333Z,3
2023-05-16T21:27:43.495Z,3
2023-05-16T21:28:57.682Z,2
2023-05-16T21:30:11.667Z,3
2023-05-16T21:31:25.864Z,3
2023-05-16T21:33:54.125Z,3
2023-05-16T21:35:08.279Z,3
2023-05-16T21:36:22.410Z,3
2023-05-16T21:38:50.580Z,2
2023-05-16T21:40:04.810Z,3
2023-05-16T21:41:18.932Z,3
2023-05-16T21:43:47.239Z,2
2023-05-16T21:45:01.319Z,2
2023-05-16T21:46:15.517Z,2
2023-05-16T21:48:43.869Z,3
2023-05-16T21:49:57.821Z,2
2023-05-16T21:51:12.012Z,2
2023-05-16T21:52:26.123Z,2
2023-05-16T21:54:54.492Z,2
2023-05-16T21:56:08.624Z,2
2023-05-16T21:57:22.732Z,3
2023-05-16T21:59:50.898Z,2
2023-05-16T22:01:05.047Z,2
2023-05-16T22:02:19.207Z,2
2023-05-16T22:04:47.622Z,3
2023-05-16T22:06:01.565Z,3
2023-05-16T22:07:15.704Z,2
2023-05-16T22:09:44.166Z,2
2023-05-16T22:10:58.140Z,2
2023-05-16T22:12:12.251Z,2
2023-05-16T22:13:26.293Z,2
2023-05-16T22:16:04.083Z,2
2023-05-16T22:17:08.980Z,2
2023-05-16T22:18:23.024Z,2
2023-05-16T22:20:51.233Z,2
2023-05-16T22:22:05.365Z,2
2023-05-16T22:23:19.499Z,2
2023-05-16T22:25:47.724Z,2
2023-05-16T22:27:01.960Z,2
2023-05-16T22:28:15.924Z,3
2023-05-16T22:30:44.232Z,3
2023-05-16T22:31:58.402Z,2
2023-05-16T22:33:12.536Z,2
2023-05-16T22:34:26.684Z,2
2023-05-16T22:36:54.930Z,2
2023-05-16T22:38:09.129Z,2
2023-05-16T22:39:23.313Z,2
2023-05-16T22:41:51.384Z,3
2023-05-16T22:43:05.512Z,2
2023-05-16T22:44:19.782Z,3
2023-05-16T22:46:48.001Z,2
2023-05-16T22:48:02.452Z,2
2023-05-16T22:49:16.265Z,2
2023-05-16T22:50:30.309Z,3
2023-05-16T22:51:44.520Z,2
2023-05-16T22:52:58.717Z,3
2023-05-16T22:54:12.864Z,2
2023-05-16T22:55:27.378Z,2
2023-05-16T22:57:55.238Z,2
2023-05-16T22:59:09.290Z,2
2023-05-16T23:00:23.437Z,2
2023-05-16T23:02:51.730Z,2
2023-05-16T23:04:05.937Z,2
2023-05-16T23:05:19.997Z,2
2023-05-16T23:07:48.185Z,2
2023-05-16T23:09:02.561Z,2
2023-05-16T23:10:16.544Z,2
2023-05-16T23:12:44.886Z,2
2023-05-16T23:13:58.965Z,2
2023-05-16T23:15:13.123Z,3
2023-05-16T23:16:27.247Z,2
2023-05-16T23:18:55.505Z,2
2023-05-16T23:20:09.678Z,2
2023-05-16T23:21:23.695Z,3
2023-05-16T23:23:51.970Z,2
2023-05-16T23:25:06.258Z,2
2023-05-16T23:26:20.223Z,2
2023-05-16T23:28:48.501Z,2
2023-05-16T23:30:02.784Z,2
2023-05-16T23:31:16.815Z,2
2023-05-16T23:34:59.186Z,2
2023-05-16T23:36:13.356Z,2
2023-05-16T23:37:27.424Z,2
2023-05-16T23:39:55.713Z,2
2023-05-16T23:41:10.199Z,2